Terminal Aerodrome Forecast
Issued by NWS Indianapolis, IN

Home | Current Version | Previous Version | Text Only | Print | Product List | Glossary On
Versions: 1 2 3 4 5 6 7 8 9 10 11 12 13 14 15 16 17 18 19 20 21 22 23 24 25 26 27 28 29 30
035
FTUS43 KIND 230539
TAFIND
TAF
KIND 230539Z 2306/2412 10008KT 1SM -DZ BR OVC003
     FM231100 14008KT 2SM RA OVC003 WS020/19040KT
     FM231400 22008KT 4SM -RA OVC003
     FM231800 26009KT 5SM -RA OVC008
     FM240300 32004KT P6SM OVC020
     FM240600 36004KT 5SM RA OVC025=

USA.gov is the U.S. government's official web portal to all federal, state and local government web resources and services.